createdAt,value
2018-04-07T00:02:49.692Z,3.37
2018-04-07T00:07:44.835Z,3.63
2018-04-07T00:12:39.296Z,3.30
2018-04-07T00:17:34.417Z,3.80
2018-04-07T00:22:28.548Z,3.60
2018-04-07T00:27:22.915Z,3.70
2018-04-07T00:32:17.287Z,3.60
2018-04-07T00:37:11.689Z,3.83
2018-04-07T00:42:06.081Z,3.57
2018-04-07T00:47:00.455Z,3.97
2018-04-07T00:51:55.584Z,4.17
2018-04-07T00:56:49.958Z,3.70
2018-04-07T01:01:44.315Z,4.07
2018-04-07T01:06:38.689Z,3.40
2018-04-07T01:11:33.261Z,4.20
2018-04-07T01:16:27.638Z,4.23
2018-04-07T01:21:22.023Z,3.80
2018-04-07T01:26:16.379Z,3.70
2018-04-07T01:31:10.756Z,4.10
2018-04-07T01:36:05.130Z,3.57
2018-04-07T01:40:59.492Z,3.97
2018-04-07T01:45:54.645Z,4.00
2018-04-07T01:50:49.027Z,3.60
2018-04-07T01:55:44.268Z,3.77
2018-04-07T02:00:38.654Z,3.57
2018-04-07T02:05:33.772Z,4.07
2018-04-07T02:10:28.902Z,3.90
2018-04-07T02:15:23.272Z,4.07
2018-04-07T02:20:17.631Z,4.10
2018-04-07T02:25:12.136Z,4.30
2018-04-07T02:30:06.492Z,4.10
2018-04-07T02:35:01.655Z,4.33
2018-04-07T02:39:56.039Z,4.37
2018-04-07T02:44:53.485Z,4.00
2018-04-07T02:49:47.864Z,4.27
2018-04-07T02:54:42.244Z,4.50
2018-04-07T02:59:36.612Z,4.67
2018-04-07T03:04:31.737Z,4.67
2018-04-07T03:09:26.128Z,4.73
2018-04-07T03:14:21.257Z,4.50
2018-04-07T03:19:15.627Z,4.70
2018-04-07T03:24:10.004Z,4.53
2018-04-07T03:29:04.356Z,4.50
2018-04-07T03:33:59.540Z,4.67
2018-04-07T03:38:53.900Z,4.90
2018-04-07T03:43:48.259Z,4.97
2018-04-07T03:48:42.412Z,4.67
2018-04-07T03:53:36.780Z,4.67
2018-04-07T03:58:31.435Z,5.17
2018-04-07T04:03:25.959Z,4.80
2018-04-07T04:08:20.339Z,5.57
2018-04-07T04:13:14.711Z,5.33
2018-04-07T04:18:09.082Z,5.00
2018-04-07T04:23:04.412Z,4.83
2018-04-07T04:27:58.775Z,5.30
2018-04-07T04:32:53.231Z,5.13
2018-04-07T04:37:48.364Z,4.97
2018-04-07T04:42:43.493Z,5.50
2018-04-07T04:47:37.929Z,5.50
2018-04-07T04:52:32.295Z,5.53
2018-04-07T04:57:26.751Z,5.67
2018-04-07T05:02:21.116Z,5.57
2018-04-07T05:07:15.481Z,5.40
2018-04-07T05:12:10.640Z,5.33
2018-04-07T05:17:05.423Z,5.50
2018-04-07T05:22:00.313Z,5.30
2018-04-07T05:26:54.761Z,5.67
2018-04-07T05:31:49.293Z,5.90
2018-04-07T05:36:44.246Z,6.10
2018-04-07T05:41:39.120Z,5.50
2018-04-07T05:46:33.466Z,6.30
2018-04-07T05:51:27.837Z,5.77
2018-04-07T05:56:22.985Z,5.70
2018-04-07T06:01:18.128Z,5.23
2018-04-07T06:06:13.254Z,5.37
2018-04-07T06:11:08.398Z,6.10
2018-04-07T06:16:02.778Z,5.23
2018-04-07T06:20:56.972Z,5.67
2018-04-07T06:25:51.324Z,5.40
2018-04-07T06:30:45.693Z,6.43
2018-04-07T06:35:40.056Z,5.70
2018-04-07T06:40:34.532Z,5.93
2018-04-07T06:45:29.666Z,5.53
2018-04-07T06:50:24.026Z,5.97
2018-04-07T06:55:18.404Z,5.83
2018-04-07T07:00:13.575Z,6.07
2018-04-07T07:05:07.692Z,6.10
2018-04-07T07:10:02.070Z,5.80
2018-04-07T07:14:56.462Z,5.83
2018-04-07T07:19:50.804Z,5.90
2018-04-07T07:24:45.098Z,6.40
2018-04-07T07:29:39.478Z,6.13
2018-04-07T07:34:35.786Z,5.97
2018-04-07T07:39:30.679Z,6.20
2018-04-07T07:44:26.416Z,6.30
2018-04-07T07:49:21.563Z,6.87
2018-04-07T07:54:15.991Z,6.83
2018-04-07T07:59:10.350Z,7.13
2018-04-07T08:04:05.631Z,7.20
2018-04-07T08:09:00.149Z,7.20
2018-04-07T08:13:54.500Z,7.27
2018-04-07T08:18:48.866Z,7.20
2018-04-07T08:23:43.216Z,6.87
2018-04-07T08:28:37.578Z,7.13
2018-04-07T08:33:32.710Z,7.50
2018-04-07T08:38:27.672Z,7.60
2018-04-07T08:43:22.175Z,7.33
2018-04-07T08:48:16.814Z,7.70
2018-04-07T08:53:11.340Z,6.87
2018-04-07T08:58:06.135Z,7.50
2018-04-07T09:03:00.894Z,8.07
2018-04-07T09:07:56.340Z,7.97
2018-04-07T09:12:51.254Z,8.00
2018-04-07T09:17:45.888Z,8.63
2018-04-07T09:22:40.512Z,8.20
2018-04-07T09:27:35.221Z,8.77
2018-04-07T09:32:29.996Z,8.70
2018-04-07T09:37:24.633Z,8.83
2018-04-07T09:42:19.092Z,8.67
2018-04-07T09:47:13.454Z,8.40
2018-04-07T09:52:08.616Z,8.73
2018-04-07T09:57:03.314Z,8.87
2018-04-07T10:01:59.383Z,8.80
2018-04-07T10:06:53.844Z,9.10
2018-04-07T10:11:49.002Z,8.10
2018-04-07T10:16:43.398Z,8.33
2018-04-07T10:21:38.779Z,8.33
2018-04-07T10:26:34.662Z,8.03
2018-04-07T10:31:29.112Z,8.50
2018-04-07T10:36:23.387Z,8.27
2018-04-07T10:41:17.786Z,7.90
2018-04-07T10:46:12.186Z,8.03
2018-04-07T10:51:06.824Z,7.57
2018-04-07T10:56:01.402Z,8.63
2018-04-07T11:00:55.850Z,7.17
2018-04-07T11:05:50.249Z,8.60
2018-04-07T11:10:45.411Z,8.10
2018-04-07T11:15:40.342Z,8.23
2018-04-07T11:20:34.683Z,7.80
2018-04-07T11:25:29.257Z,7.57
2018-04-07T11:30:23.640Z,7.40
2018-04-07T11:35:18.008Z,7.13
2018-04-07T11:40:12.392Z,6.93
2018-04-07T11:45:06.764Z,7.30
2018-04-07T11:50:01.272Z,8.20
2018-04-07T11:54:55.660Z,7.33
2018-04-07T11:59:50.071Z,8.00
2018-04-07T12:04:44.452Z,7.57
2018-04-07T12:09:38.850Z,7.60
2018-04-07T12:14:33.982Z,7.10
2018-04-07T12:19:28.524Z,7.27
2018-04-07T12:24:22.888Z,7.90
2018-04-07T12:29:17.240Z,7.57
2018-04-07T12:34:11.594Z,6.70
2018-04-07T12:39:05.284Z,6.83
2018-04-07T12:43:59.642Z,6.63
2018-04-07T12:48:54.008Z,6.53
2018-04-07T12:53:48.124Z,7.33
2018-04-07T12:58:42.488Z,7.67
2018-04-07T13:03:36.605Z,7.07
2018-04-07T13:08:30.976Z,6.90
2018-04-07T13:13:25.347Z,6.73
2018-04-07T13:18:20.490Z,6.63
2018-04-07T13:23:15.381Z,6.97
2018-04-07T13:28:09.624Z,6.67
2018-04-07T13:33:04.002Z,5.90
2018-04-07T13:37:59.134Z,5.97
2018-04-07T13:42:54.284Z,6.33
2018-04-07T13:47:48.415Z,6.60
2018-04-07T13:52:42.896Z,6.27
2018-04-07T13:57:37.264Z,6.77
2018-04-07T14:02:31.608Z,6.80
2018-04-07T14:07:25.962Z,6.10
2018-04-07T14:12:20.311Z,6.57
2018-04-07T14:17:14.699Z,6.33
2018-04-07T14:22:09.131Z,5.83
2018-04-07T14:27:03.506Z,5.73
2018-04-07T14:31:57.857Z,5.43
2018-04-07T14:36:52.218Z,6.10
2018-04-07T14:41:46.608Z,5.43
2018-04-07T14:46:41.007Z,5.63
2018-04-07T14:51:36.775Z,5.27
2018-04-07T14:56:46.121Z,5.47
2018-04-07T15:01:40.736Z,5.27
2018-04-07T15:06:43.884Z,5.10
2018-04-07T15:11:41.913Z,4.67
2018-04-07T15:16:36.279Z,5.00
2018-04-07T15:21:31.618Z,4.83
2018-04-07T15:26:25.986Z,4.70
2018-04-07T15:31:20.364Z,4.70
2018-04-07T15:36:14.747Z,4.27
2018-04-07T15:41:09.277Z,4.20
2018-04-07T15:46:03.646Z,4.63
2018-04-07T15:50:58.218Z,4.47
2018-04-07T15:56:07.762Z,4.83
2018-04-07T16:01:02.848Z,4.20
2018-04-07T16:05:58.192Z,4.60
2018-04-07T16:10:52.514Z,3.40
2018-04-07T16:15:47.850Z,4.40
2018-04-07T16:20:43.672Z,3.97
2018-04-07T16:25:39.027Z,4.27
2018-04-07T16:30:38.484Z,3.60
2018-04-07T16:35:32.871Z,3.53
2018-04-07T16:40:27.256Z,3.40
2018-04-07T16:45:21.680Z,3.20
2018-04-07T16:50:16.416Z,4.00
2018-04-07T16:55:10.764Z,3.97
2018-04-07T17:00:05.242Z,3.80
2018-04-07T17:04:59.611Z,3.30
2018-04-07T17:09:58.109Z,3.40
2018-04-07T17:14:54.018Z,3.53
2018-04-07T17:20:11.340Z,4.00
2018-04-07T17:25:20.635Z,3.60
2018-04-07T17:30:15.068Z,3.70
2018-04-07T17:35:09.562Z,3.60
2018-04-07T17:40:04.298Z,3.47
2018-04-07T17:45:11.672Z,3.60
2018-04-07T17:50:05.833Z,3.87
2018-04-07T17:55:00.213Z,3.23
2018-04-07T17:59:55.666Z,4.27
2018-04-07T18:05:06.001Z,3.60
2018-04-07T18:15:32.798Z,3.63
2018-04-07T18:20:27.173Z,3.53
2018-04-07T18:25:21.567Z,3.33
2018-04-07T18:30:16.077Z,2.97
2018-04-07T18:35:10.420Z,3.90
2018-04-07T18:40:05.106Z,3.60
2018-04-07T18:44:59.493Z,3.63
2018-04-07T18:49:53.897Z,3.83
2018-04-07T18:54:48.406Z,4.10
2018-04-07T18:59:42.765Z,3.50
2018-04-07T19:04:37.877Z,3.70
2018-04-07T19:09:32.967Z,3.87
2018-04-07T19:14:27.465Z,3.60
2018-04-07T19:19:21.848Z,3.90
2018-04-07T19:24:16.199Z,4.17
2018-04-07T19:29:10.742Z,4.40
2018-04-07T19:34:05.485Z,4.23
2018-04-07T19:49:46.835Z,5.28
2018-04-07T19:54:42.272Z,5.10
2018-04-07T19:59:36.808Z,5.50
2018-04-07T20:04:31.577Z,4.97
2018-04-07T20:09:29.381Z,5.90
2018-04-07T20:14:23.868Z,5.70
2018-04-07T20:19:18.210Z,6.17
2018-04-07T20:24:13.149Z,5.77
2018-04-07T20:29:08.309Z,5.73
2018-04-07T20:34:03.849Z,6.03
2018-04-07T20:38:58.824Z,6.57
2018-04-07T20:43:53.309Z,6.63
2018-04-07T20:48:48.600Z,7.57
2018-04-07T20:53:46.238Z,7.20
2018-04-07T20:58:40.664Z,7.00
2018-04-07T21:03:35.070Z,7.33
2018-04-07T21:08:29.197Z,7.50
2018-04-07T21:13:23.565Z,7.47
2018-04-07T21:18:17.943Z,7.30
2018-04-07T21:23:12.293Z,7.20
2018-04-07T21:28:07.389Z,7.23
2018-04-07T21:33:01.980Z,7.00
2018-04-07T21:37:56.864Z,7.67
2018-04-07T21:42:51.992Z,6.97
2018-04-07T21:47:47.098Z,7.67
2018-04-07T21:52:42.102Z,7.47
2018-04-07T21:57:37.272Z,7.40
2018-04-07T22:02:31.803Z,7.33
2018-04-07T22:07:27.155Z,6.77
2018-04-07T22:12:21.390Z,6.60
2018-04-07T22:17:16.851Z,6.70
2018-04-07T22:22:11.895Z,6.60
2018-04-07T22:27:06.272Z,6.60
2018-04-07T22:32:00.426Z,6.67
2018-04-07T22:36:55.690Z,6.10
2018-04-07T22:41:49.823Z,5.70
2018-04-07T22:46:44.200Z,6.10
2018-04-07T22:51:38.624Z,6.53
2018-04-07T22:56:33.328Z,5.60
2018-04-07T23:01:27.693Z,5.90
2018-04-07T23:06:22.426Z,5.50
2018-04-07T23:11:16.821Z,5.20
2018-04-07T23:16:11.191Z,5.33
2018-04-07T23:21:06.340Z,5.10
2018-04-07T23:26:01.773Z,4.77
2018-04-07T23:30:56.170Z,4.67
2018-04-07T23:35:50.562Z,5.70
2018-04-07T23:40:44.936Z,4.87
2018-04-07T23:45:40.070Z,5.10
2018-04-07T23:50:35.224Z,5.10
2018-04-07T23:55:29.592Z,5.00
